sensor_id;sensor_type;location;lat;lon;timestamp;temperature;humidity
7562;DHT22;3822;48.784;9.174;2023-11-19T11:57:10;16.70;94.40
7562;DHT22;3822;48.784;9.174;2023-11-19T12:00:06;16.80;94.50
7562;DHT22;3822;48.784;9.174;2023-11-19T12:11:11;17.10;94.90
7562;DHT22;3822;48.784;9.174;2023-11-19T12:13:55;14.70;93.80
7562;DHT22;3822;48.784;9.174;2023-11-19T12:16:27;17.30;94.70
7562;DHT22;3822;48.784;9.174;2023-11-19T12:19:03;17.40;94.60
7562;DHT22;3822;48.784;9.174;2023-11-19T12:21:32;17.60;94.40
7562;DHT22;3822;48.784;9.174;2023-11-19T12:24:03;17.60;94.20
7562;DHT22;3822;48.784;9.174;2023-11-19T12:26:44;17.70;93.80
7562;DHT22;3822;48.784;9.174;2023-11-19T12:29:11;17.70;92.90
7562;DHT22;3822;48.784;9.174;2023-11-19T12:31:55;17.80;92.70
7562;DHT22;3822;48.784;9.174;2023-11-19T12:34:31;16.80;91.70
7562;DHT22;3822;48.784;9.174;2023-11-19T12:37:13;18.80;92.90
7562;DHT22;3822;48.784;9.174;2023-11-19T12:39:41;18.00;91.70
7562;DHT22;3822;48.784;9.174;2023-11-19T12:42:14;18.10;91.00
7562;DHT22;3822;48.784;9.174;2023-11-19T12:44:56;18.10;91.00
7562;DHT22;3822;48.784;9.174;2023-11-19T12:47:26;18.20;90.80
7562;DHT22;3822;48.784;9.174;2023-11-19T12:49:58;18.20;90.30
7562;DHT22;3822;48.784;9.174;2023-11-19T12:52:36;18.20;88.00
7562;DHT22;3822;48.784;9.174;2023-11-19T12:55:30;18.20;87.60
7562;DHT22;3822;48.784;9.174;2023-11-19T12:57:58;18.30;87.70
7562;DHT22;3822;48.784;9.174;2023-11-19T13:00:28;18.30;88.40
7562;DHT22;3822;48.784;9.174;2023-11-19T13:02:58;18.30;88.90
7562;DHT22;3822;48.784;9.174;2023-11-19T13:08:53;17.60;86.60
7562;DHT22;3822;48.784;9.174;2023-11-19T13:11:51;18.60;87.00
7562;DHT22;3822;48.784;9.174;2023-11-19T13:14:18;18.70;86.20
7562;DHT22;3822;48.784;9.174;2023-11-19T13:16:46;18.80;86.20
7562;DHT22;3822;48.784;9.174;2023-11-19T13:19:17;18.90;84.90
7562;DHT22;3822;48.784;9.174;2023-11-19T13:21:45;19.00;84.70
7562;DHT22;3822;48.784;9.174;2023-11-19T13:24:13;19.20;83.60
7562;DHT22;3822;48.784;9.174;2023-11-19T13:26:44;19.30;82.80
7562;DHT22;3822;48.784;9.174;2023-11-19T13:29:32;19.30;82.40
7562;DHT22;3822;48.784;9.174;2023-11-19T13:31:59;19.20;81.20
7562;DHT22;3822;48.784;9.174;2023-11-19T13:34:26;19.20;80.30
7562;DHT22;3822;48.784;9.174;2023-11-19T13:37:01;19.20;80.80
7562;DHT22;3822;48.784;9.174;2023-11-19T13:39:27;19.20;80.60
7562;DHT22;3822;48.784;9.174;2023-11-19T13:41:58;19.20;80.10
7562;DHT22;3822;48.784;9.174;2023-11-19T13:44:35;19.20;80.90
7562;DHT22;3822;48.784;9.174;2023-11-19T13:47:03;19.20;80.20
7562;DHT22;3822;48.784;9.174;2023-11-19T13:49:52;19.20;80.30
7562;DHT22;3822;48.784;9.174;2023-11-19T13:52:22;19.30;80.50
7562;DHT22;3822;48.784;9.174;2023-11-19T13:54:48;19.30;82.20
7562;DHT22;3822;48.784;9.174;2023-11-19T13:57:15;19.40;80.00
7562;DHT22;3822;48.784;9.174;2023-11-19T13:59:44;19.40;80.40
7562;DHT22;3822;48.784;9.174;2023-11-19T14:02:11;19.50;78.20
7562;DHT22;3822;48.784;9.174;2023-11-19T14:04:48;19.60;76.30
7562;DHT22;3822;48.784;9.174;2023-11-19T14:13:35;19.70;75.00
7562;DHT22;3822;48.784;9.174;2023-11-19T14:20:04;16.90;70.90
7562;DHT22;3822;48.784;9.174;2023-11-19T14:30:45;19.80;74.30
7562;DHT22;3822;48.784;9.174;2023-11-19T14:33:19;23.10;76.80
7562;DHT22;3822;48.784;9.174;2023-11-19T14:35:47;20.30;74.70
7562;DHT22;3822;48.784;9.174;2023-11-19T14:44:43;21.10;71.90
7562;DHT22;3822;48.784;9.174;2023-11-19T14:47:51;21.00;71.10
7562;DHT22;3822;48.784;9.174;2023-11-19T14:50:54;20.80;71.80
7562;DHT22;3822;48.784;9.174;2023-11-19T14:53:52;20.70;71.30
7562;DHT22;3822;48.784;9.174;2023-11-19T14:56:42;18.00;70.90
7562;DHT22;3822;48.784;9.174;2023-11-19T14:59:11;20.00;73.10
7562;DHT22;3822;48.784;9.174;2023-11-19T15:01:40;19.80;73.70
7562;DHT22;3822;48.784;9.174;2023-11-19T15:04:36;19.60;74.20
7562;DHT22;3822;48.784;9.174;2023-11-19T15:07:35;19.40;75.20
7562;DHT22;3822;48.784;9.174;2023-11-19T15:10:10;19.10;76.40
7562;DHT22;3822;48.784;9.174;2023-11-19T15:12:41;18.90;75.40
7562;DHT22;3822;48.784;9.174;2023-11-19T15:15:14;19.00;76.60
7562;DHT22;3822;48.784;9.174;2023-11-19T15:18:03;18.80;77.10
7562;DHT22;3822;48.784;9.174;2023-11-19T15:24:31;18.20;76.30
7562;DHT22;3822;48.784;9.174;2023-11-19T15:27:09;17.90;76.20
7562;DHT22;3822;48.784;9.174;2023-11-19T18:05:55;14.70;89.60
7562;DHT22;3822;48.784;9.174;2023-11-19T18:08:21;14.70;90.20
7562;DHT22;3822;48.784;9.174;2023-11-19T18:10:49;14.70;90.20
7562;DHT22;3822;48.784;9.174;2023-11-19T18:13:16;14.70;90.00
7562;DHT22;3822;48.784;9.174;2023-11-19T18:15:43;14.70;90.10
7562;DHT22;3822;48.784;9.174;2023-11-19T18:18:10;14.80;89.80
7562;DHT22;3822;48.784;9.174;2023-11-19T18:20:36;15.30;90.30
7562;DHT22;3822;48.784;9.174;2023-11-19T18:23:03;14.80;89.70
7562;DHT22;3822;48.784;9.174;2023-11-19T18:25:34;14.80;90.00
7562;DHT22;3822;48.784;9.174;2023-11-19T18:28:05;17.00;90.80
7562;DHT22;3822;48.784;9.174;2023-11-19T18:30:33;14.90;90.30
7562;DHT22;3822;48.784;9.174;2023-11-19T18:33:02;14.90;90.30
7562;DHT22;3822;48.784;9.174;2023-11-19T18:35:29;14.90;90.20
7562;DHT22;3822;48.784;9.174;2023-11-19T18:38:02;14.90;90.30
7562;DHT22;3822;48.784;9.174;2023-11-19T18:40:29;14.90;90.30
7562;DHT22;3822;48.784;9.174;2023-11-19T18:42:56;14.90;90.50
7562;DHT22;3822;48.784;9.174;2023-11-19T18:45:22;14.90;90.70
7562;DHT22;3822;48.784;9.174;2023-11-19T18:47:49;14.90;90.50
7562;DHT22;3822;48.784;9.174;2023-11-19T18:50:18;15.00;90.50
7562;DHT22;3822;48.784;9.174;2023-11-19T18:52:47;15.00;90.50
7562;DHT22;3822;48.784;9.174;2023-11-19T18:55:13;15.00;90.60
7562;DHT22;3822;48.784;9.174;2023-11-19T18:57:40;15.00;90.60
7562;DHT22;3822;48.784;9.174;2023-11-19T19:00:07;15.00;90.70
7562;DHT22;3822;48.784;9.174;2023-11-19T19:02:37;15.00;90.60
7562;DHT22;3822;48.784;9.174;2023-11-19T19:26:21;15.10;90.90
7562;DHT22;3822;48.784;9.174;2023-11-19T19:28:52;15.10;90.90
7562;DHT22;3822;48.784;9.174;2023-11-19T19:34:09;15.10;91.00
7562;DHT22;3822;48.784;9.174;2023-11-19T19:36:55;15.10;91.00
7562;DHT22;3822;48.784;9.174;2023-11-19T19:43:04;15.00;91.60
7562;DHT22;3822;48.784;9.174;2023-11-19T19:45:42;15.10;92.10
7562;DHT22;3822;48.784;9.174;2023-11-19T19:48:10;15.00;92.70
7562;DHT22;3822;48.784;9.174;2023-11-19T19:51:11;15.00;93.20
7562;DHT22;3822;48.784;9.174;2023-11-19T19:54:03;15.30;93.50
7562;DHT22;3822;48.784;9.174;2023-11-19T19:56:37;17.30;94.90
7562;DHT22;3822;48.784;9.174;2023-11-19T20:00:07;14.70;94.30
7562;DHT22;3822;48.784;9.174;2023-11-19T20:02:48;14.60;94.90
7562;DHT22;3822;48.784;9.174;2023-11-19T20:05:46;14.50;95.20
7562;DHT22;3822;48.784;9.174;2023-11-19T20:08:25;14.40;95.40
7562;DHT22;3822;48.784;9.174;2023-11-19T20:10:53;14.30;95.90
7562;DHT22;3822;48.784;9.174;2023-11-19T20:14:14;14.20;96.30
7562;DHT22;3822;48.784;9.174;2023-11-19T20:18:09;14.10;96.70
7562;DHT22;3822;48.784;9.174;2023-11-19T20:24:43;13.90;97.40
7562;DHT22;3822;48.784;9.174;2023-11-19T20:28:15;13.70;98.10
7562;DHT22;3822;48.784;9.174;2023-11-19T22:22:36;13.10;94.80
7562;DHT22;3822;48.784;9.174;2023-11-19T22:35:11;13.20;94.40
